LFPGTFFR

Guest
Details From LFPG - Paris Charles De Gaulle
To TFFR - Pointe a Pitre Le Raizet
Flight Number -
Tags decoded
Created
Modified
Stats Distance 3,710 nm / 6,871 km
Max Altitude 0 ft / 0 m
Waypoints 12
Social Downloads 0
Likes 0
Share VATSIM

Download

Looking for another format? Having issues loading an existing format? Contact us
Advertisement - Login to hide

Notes

Requested: LFPG LGL UT176 ROLEN UT176 TERPO UN461 RIVAK UN460 SIVIR BERUX MUDOS BANAL 410000N/0200000W 360000N/0300000W 310000N/0400000W 230000N/0500000W BNJEE BOSET BOSET5P TFFR Unmatched points: UT176 UT176 410000N/0200000W 360000N/0300000W 310000N/0400000W 230000N/0500000W BNJEE BOSET5P

Route

LFPG LGL ROLEN TERPO UN461 RIVAK UN460 SIVIR BERUX MUDOS BANAL TFFR

ID Type Via Altitude (ft/m) Position (lat/lon) Dist (leg/tot) Name
O LFPG APT - 0 / 0 49.00974 / 2.56262 - / 0 nm Paris Charles De Gaulle
LGL VOR - 0 / 0 48.79061 / 0.53028 81 / 81 nm L AIGLE VOR
ROLEN FIX - 0 / 0 48.58000 / 0.15667 19 / 100 nm
TERPO FIX - 0 / 0 47.34889 / -1.92889 111 / 212 nm
AKEMO FIX UN461 (AWY-HI) 0 / 0 47.13917 / -3.00000 45 / 258 nm
KOLEK FIX UN461 (AWY-HI) 0 / 0 46.61278 / -5.40806 103 / 361 nm
RIVAK FIX UN461 (AWY-HI) 0 / 0 46.00000 / -8.00000 113 / 475 nm
SIVIR FIX UN460 (AWY-HI) 0 / 0 46.00000 / -8.75000 31 / 506 nm
BERUX FIX - 0 / 0 45.00000 / -11.00000 112 / 618 nm
MUDOS FIX - 0 / 0 43.50000 / -13.00000 124 / 743 nm
BANAL FIX - 0 / 0 42.00000 / -15.00000 126 / 869 nm
O TFFR APT - 0 / 0 16.26531 / -61.53181 2840 / 3710 nm Pointe a Pitre Le Raizet

Altitude Profile

Advertisement - Login to hide

Weather


0- 5 10 15 20 25 30 35+ Temperature / °C

Clouds and Precipitation
Forecast for 2018-08-17 18:00 UTC. Updated 3 hours ago

Ground ~20,000 ft ~40,000 ft Winds

LFPG

Details ICAO LFPG (CDG)
Name Paris Charles De Gaulle
Region France
Timezone Europe/Paris (UTC+2.0)
Stats Elevation 392 ft / 119 m (AMSL)
Location 49.009700° 2.562620°
Runways 4
Magnetic Variation 0.732° E

METAR

LFPG 171830Z 34008KT CAVOK 22/10 Q1021 NOSIG

Decode

TAF

TAF LFPG 171700Z 1718/1824 34008KT CAVOK TX25/1815Z TN12/1805Z= TAF LFPO 171700Z 1718/1824 32007KT CAVOK

Decode

Departure Runways

ID Width Length Bearing (true/mag) Surface Threshold Overrun Markings Lighting
08L 148 ft / 45 m 13,800 ft / 4,206 m 85.33° / 84.60° ASPHALT 0 ft / 0 m 194 ft / 59 m PREC-APP CENTERLINE EDGE THRESHOLD SALS TDZ REIL-OMNI
08R 197 ft / 60 m 8,840 ft / 2,695 m 85.32° / 84.59° ASPHALT 0 ft / 0 m 194 ft / 59 m PREC-APP CENTERLINE EDGE THRESHOLD SALS TDZ REIL-OMNI
09L 197 ft / 60 m 8,835 ft / 2,693 m 85.39° / 84.66° ASPHALT 0 ft / 0 m 217 ft / 66 m PREC-APP CENTERLINE EDGE THRESHOLD TDZ REIL-OMNI
09R 148 ft / 45 m 13,743 ft / 4,189 m 85.29° / 84.56° ASPHALT 0 ft / 0 m 194 ft / 59 m PREC-APP CENTERLINE EDGE THRESHOLD SALS TDZ REIL-OMNI
26L 197 ft / 60 m 8,840 ft / 2,695 m 265.35° / 264.62° ASPHALT 0 ft / 0 m 194 ft / 59 m PREC-APP CENTERLINE EDGE THRESHOLD SALS TDZ REIL-OMNI
26R 148 ft / 45 m 13,800 ft / 4,206 m 265.38° / 264.65° ASPHALT 1,962 ft / 598 m 200 ft / 61 m PREC-APP CENTERLINE EDGE THRESHOLD SALS TDZ REIL-OMNI
27L 148 ft / 45 m 13,743 ft / 4,189 m 265.34° / 264.61° ASPHALT 1,968 ft / 600 m 0 ft / 0 m PREC-APP CENTERLINE EDGE THRESHOLD SALS TDZ REIL-OMNI
27R 197 ft / 60 m 8,835 ft / 2,693 m 265.41° / 264.68° ASPHALT 0 ft / 0 m 220 ft / 67 m PREC-APP CENTERLINE EDGE THRESHOLD TDZ REIL-OMNI

TFFR

Details ICAO TFFR (PTP)
Name Point a Pitre - Le Raizet
Region France (Guadeloupe, Martinique, Saint Barthélemy, Saint Martin)
Timezone America/Guadeloupe (UTC-4.0)
Stats Elevation 35 ft / 11 m (AMSL)
Location 16.265500° -61.533000°
Runways 1
Magnetic Variation 14.874° W

METAR

TFFR 171830Z AUTO 10016KT 080V140 9999 SCT033 SCT048 31/20 Q1017 NOSIG

Decode

TAF

TAF TFFR 171600Z 1718/1818 11015KT 9999 SCT030 TEMPO 1800/1812 VRB03KT

Decode

Destination Runways

ID Width Length Bearing (true/mag) Surface Threshold Overrun Markings Lighting
12 148 ft / 45 m 10,673 ft / 3,253 m 100.95° / 115.82° ASPHALT 1,302 ft / 397 m 0 ft / 0 m PREC-APP EDGE THRESHOLD ALSF-I TDZ
30 148 ft / 45 m 10,673 ft / 3,253 m 280.96° / 295.83° ASPHALT 978 ft / 298 m 820 ft / 250 m PREC-APP EDGE THRESHOLD ALSF-I TDZ

Approach Navaids

Runway Type Ident Frequency Range Bearing (true/mag) Slope Elevation
12 GS PP 110.30 MHz 18 nm / 33 km 100.95° / 115.82 ° 3.20° 35 ft / 11 m (AMSL)
12 LOC-ILS PP 110.30 MHz 18 nm / 33 km 100.95° / 115.82 ° - 35 ft / 11 m (AMSL)

Popular Alternatives